createdAt,value
2019-05-20T00:01:04.594Z,17.10
2019-05-20T00:03:33.432Z,17.00
2019-05-20T00:06:02.429Z,17.00
2019-05-20T00:08:31.142Z,17.10
2019-05-20T00:11:00.033Z,17.00
2019-05-20T00:13:30.674Z,17.10
2019-05-20T00:15:59.474Z,16.90
2019-05-20T00:18:28.337Z,17.00
2019-05-20T00:20:57.922Z,16.80
2019-05-20T00:23:26.760Z,16.80
2019-05-20T00:25:55.594Z,16.90
2019-05-20T00:28:24.441Z,16.90
2019-05-20T00:30:53.278Z,16.90
2019-05-20T00:33:22.887Z,16.80
2019-05-20T00:35:51.704Z,16.70
2019-05-20T00:38:19.784Z,16.70
2019-05-20T00:40:48.654Z,16.70
2019-05-20T00:43:17.476Z,16.60
2019-05-20T00:45:46.353Z,16.60
2019-05-20T00:50:44.599Z,16.40
2019-05-20T00:53:13.439Z,16.40
2019-05-20T00:55:42.285Z,16.40
2019-05-20T00:58:11.132Z,16.50
2019-05-20T01:00:39.984Z,16.50
2019-05-20T01:03:09.591Z,16.50
2019-05-20T01:05:39.172Z,16.40
2019-05-20T01:10:37.460Z,16.50
2019-05-20T01:13:06.316Z,16.50
2019-05-20T01:15:35.153Z,16.50
2019-05-20T01:18:04.752Z,16.50
2019-05-20T01:23:03.032Z,16.30
2019-05-20T01:25:31.862Z,16.20
2019-05-20T01:28:01.486Z,16.20
2019-05-20T01:30:30.337Z,16.00
2019-05-20T01:33:12.739Z,16.10
2019-05-20T01:35:28.039Z,16.00
2019-05-20T01:37:57.613Z,15.80
2019-05-20T01:40:26.455Z,15.90
2019-05-20T01:42:55.310Z,15.80
2019-05-20T01:45:24.894Z,15.90
2019-05-20T01:47:53.735Z,16.10
2019-05-20T01:50:22.582Z,16.20
2019-05-20T01:52:51.403Z,16.20
2019-05-20T01:55:20.293Z,16.20
2019-05-20T01:57:49.112Z,16.10
2019-05-20T02:00:17.953Z,16.10
2019-05-20T02:02:47.556Z,16.10
2019-05-20T02:05:17.131Z,16.10
2019-05-20T02:07:45.970Z,16.10
2019-05-20T02:10:14.808Z,15.90
2019-05-20T02:12:43.650Z,15.90
2019-05-20T02:15:13.408Z,15.90
2019-05-20T02:17:42.232Z,15.80
2019-05-20T02:20:11.816Z,15.90
2019-05-20T02:22:40.685Z,15.90
2019-05-20T02:25:09.614Z,15.90
2019-05-20T02:27:39.111Z,15.80
2019-05-20T02:30:07.954Z,15.80
2019-05-20T02:32:36.812Z,15.80
2019-05-20T02:37:35.075Z,15.60
2019-05-20T02:40:03.946Z,15.60
2019-05-20T02:42:32.752Z,15.60
2019-05-20T02:45:02.337Z,15.50
2019-05-20T02:47:31.157Z,15.50
2019-05-20T02:49:59.998Z,15.60
2019-05-20T02:52:28.849Z,15.50
2019-05-20T02:54:58.428Z,15.40
2019-05-20T02:57:27.250Z,15.20
2019-05-20T02:59:56.813Z,15.10
2019-05-20T03:02:25.662Z,15.20
2019-05-20T03:04:54.534Z,15.20
2019-05-20T03:07:24.100Z,15.20
2019-05-20T03:09:52.934Z,15.30
2019-05-20T03:12:21.827Z,15.40
2019-05-20T03:14:51.392Z,15.30
2019-05-20T03:17:20.215Z,15.30
2019-05-20T03:19:49.801Z,15.20
2019-05-20T03:22:18.657Z,15.30
2019-05-20T03:24:47.485Z,15.30
2019-05-20T03:27:16.341Z,15.30
2019-05-20T03:29:45.167Z,15.30
2019-05-20T03:32:14.735Z,15.20
2019-05-20T03:34:53.792Z,15.20
2019-05-20T03:37:13.162Z,15.20
2019-05-20T03:39:42.038Z,15.10
2019-05-20T03:42:10.879Z,15.10
2019-05-20T03:44:39.736Z,15.10
2019-05-20T03:47:09.310Z,15.20
2019-05-20T03:49:38.141Z,15.10
2019-05-20T03:52:07.720Z,15.00
2019-05-20T03:54:36.560Z,15.00
2019-05-20T03:57:05.383Z,15.00
2019-05-20T03:59:34.201Z,15.00
2019-05-20T04:02:03.789Z,15.00
2019-05-20T04:04:32.645Z,15.00
2019-05-20T04:07:01.513Z,14.90
2019-05-20T04:09:30.355Z,14.90
2019-05-20T04:11:59.217Z,14.90
2019-05-20T04:14:28.059Z,14.90
2019-05-20T04:16:57.645Z,15.00
2019-05-20T04:19:26.491Z,14.90
2019-05-20T04:21:55.345Z,14.80
2019-05-20T04:24:24.189Z,14.80
2019-05-20T04:26:53.022Z,14.90
2019-05-20T04:29:22.644Z,14.90
2019-05-20T04:31:51.520Z,15.00
2019-05-20T04:34:20.329Z,14.90
2019-05-20T04:36:49.158Z,15.00
2019-05-20T04:39:17.996Z,15.00
2019-05-20T04:41:46.899Z,15.10
2019-05-20T04:44:15.676Z,15.00
2019-05-20T04:46:45.272Z,15.10
2019-05-20T04:51:43.508Z,15.10
2019-05-20T04:54:12.370Z,15.10
2019-05-20T04:56:41.178Z,15.10
2019-05-20T04:59:10.011Z,15.00
2019-05-20T05:01:38.864Z,15.00
2019-05-20T05:04:08.454Z,15.00
2019-05-20T05:09:06.775Z,15.10
2019-05-20T05:11:35.615Z,15.00
2019-05-20T05:14:04.471Z,15.10
2019-05-20T05:16:34.075Z,15.10
2019-05-20T05:21:33.206Z,15.30
2019-05-20T05:24:02.006Z,15.50
2019-05-20T05:26:31.625Z,15.40
2019-05-20T05:29:01.213Z,15.30
2019-05-20T05:31:30.795Z,15.40
2019-05-20T05:34:00.363Z,15.40
2019-05-20T05:36:29.213Z,15.50
2019-05-20T05:38:58.059Z,15.40
2019-05-20T05:41:26.883Z,15.40
2019-05-20T05:43:55.731Z,15.40
2019-05-20T05:46:24.566Z,15.30
2019-05-20T05:48:54.264Z,15.40
2019-05-20T05:51:23.121Z,15.40
2019-05-20T05:53:51.953Z,15.50
2019-05-20T05:56:20.802Z,15.60
2019-05-20T05:58:49.633Z,15.60
2019-05-20T06:01:18.479Z,15.60
2019-05-20T06:03:47.320Z,15.70
2019-05-20T06:06:16.169Z,15.80
2019-05-20T06:08:45.008Z,15.90
2019-05-20T06:11:13.856Z,15.70
2019-05-20T06:13:42.695Z,15.80
2019-05-20T06:16:11.528Z,15.90
2019-05-20T06:18:40.359Z,15.90
2019-05-20T06:21:09.947Z,15.90
2019-05-20T06:23:38.807Z,15.80
2019-05-20T06:26:07.663Z,15.80
2019-05-20T06:28:36.527Z,15.80
2019-05-20T06:31:05.367Z,16.00
2019-05-20T06:33:34.205Z,16.10
2019-05-20T06:36:03.827Z,16.20
2019-05-20T06:38:32.666Z,16.10
2019-05-20T06:41:01.505Z,16.20
2019-05-20T06:45:59.764Z,16.10
2019-05-20T06:48:28.634Z,16.10
2019-05-20T06:50:57.451Z,16.20
2019-05-20T06:53:26.287Z,16.30
2019-05-20T06:55:55.133Z,16.30
2019-05-20T06:58:23.988Z,16.30
2019-05-20T07:00:52.839Z,16.40
2019-05-20T07:03:21.733Z,16.40
2019-05-20T07:05:50.581Z,16.50
2019-05-20T07:08:19.402Z,16.50
2019-05-20T07:10:48.986Z,16.50
2019-05-20T07:13:17.836Z,16.50
2019-05-20T07:15:46.664Z,16.50
2019-05-20T07:18:15.513Z,16.50
2019-05-20T07:20:44.353Z,16.60
2019-05-20T07:23:13.937Z,16.60
2019-05-20T07:25:43.519Z,16.80
2019-05-20T07:28:12.353Z,16.90
2019-05-20T07:30:41.196Z,17.00
2019-05-20T07:33:10.029Z,17.00
2019-05-20T07:35:39.615Z,17.00
2019-05-20T07:38:08.453Z,17.20
2019-05-20T07:40:37.288Z,17.40
2019-05-20T07:43:06.159Z,17.50
2019-05-20T07:45:35.134Z,17.60
2019-05-20T07:48:04.590Z,17.50
2019-05-20T07:50:33.460Z,17.50
2019-05-20T07:53:02.295Z,17.60
2019-05-20T07:55:31.871Z,17.50
2019-05-20T07:58:00.738Z,17.50
2019-05-20T08:00:29.565Z,17.60
2019-05-20T08:02:59.159Z,17.50
2019-05-20T08:05:27.980Z,17.50
2019-05-20T08:07:57.561Z,17.60
2019-05-20T08:10:26.418Z,17.60
2019-05-20T08:12:55.259Z,17.70
2019-05-20T08:15:24.854Z,17.70
2019-05-20T08:17:54.217Z,17.80
2019-05-20T08:20:22.790Z,17.70
2019-05-20T08:22:51.619Z,17.80
2019-05-20T08:25:20.463Z,17.90
2019-05-20T08:27:49.306Z,18.00
2019-05-20T08:30:18.225Z,17.80
2019-05-20T08:32:47.777Z,17.80
2019-05-20T08:35:16.677Z,17.90
2019-05-20T08:37:46.250Z,18.10
2019-05-20T08:40:14.379Z,18.10
2019-05-20T08:42:44.077Z,18.10
2019-05-20T08:45:12.847Z,18.20
2019-05-20T08:47:41.720Z,18.30
2019-05-20T08:50:15.707Z,18.30
2019-05-20T08:52:39.424Z,18.20
2019-05-20T08:55:09.011Z,18.30
2019-05-20T08:57:37.849Z,18.30
2019-05-20T09:00:06.730Z,18.40
2019-05-20T09:02:35.554Z,18.50
2019-05-20T09:05:04.431Z,18.60
2019-05-20T09:07:33.979Z,18.70
2019-05-20T09:10:02.902Z,18.80
2019-05-20T09:12:32.554Z,19.00
2019-05-20T09:15:01.371Z,18.90
2019-05-20T09:17:31.048Z,19.00
2019-05-20T09:19:59.838Z,19.10
2019-05-20T09:22:28.708Z,18.90
2019-05-20T09:24:58.366Z,18.80
2019-05-20T09:27:27.162Z,19.00
2019-05-20T09:29:55.959Z,19.00
2019-05-20T09:32:24.858Z,19.30
2019-05-20T09:34:53.638Z,19.20
2019-05-20T09:37:23.281Z,19.10
2019-05-20T09:39:52.225Z,19.00
2019-05-20T09:42:20.917Z,19.00
2019-05-20T09:44:49.781Z,19.00
2019-05-20T09:47:18.591Z,19.00
2019-05-20T09:49:47.446Z,19.00
2019-05-20T09:52:16.286Z,19.00
2019-05-20T09:54:45.891Z,19.00
2019-05-20T09:57:14.710Z,19.10
2019-05-20T09:59:43.923Z,19.10
2019-05-20T10:02:13.167Z,19.00
2019-05-20T10:04:42.010Z,19.20
2019-05-20T10:07:10.824Z,19.10
2019-05-20T10:09:39.658Z,19.10
2019-05-20T10:12:08.499Z,19.00
2019-05-20T10:14:37.334Z,19.30
2019-05-20T10:17:06.219Z,19.60
2019-05-20T10:19:35.811Z,19.50
2019-05-20T10:22:05.412Z,19.40
2019-05-20T10:27:04.419Z,19.60
2019-05-20T10:29:33.266Z,19.70
2019-05-20T10:32:02.155Z,19.80
2019-05-20T10:34:31.683Z,20.00
2019-05-20T10:37:00.644Z,19.90
2019-05-20T10:39:30.203Z,20.00
2019-05-20T10:41:59.778Z,19.90
2019-05-20T10:44:28.607Z,20.00
2019-05-20T10:46:57.498Z,20.00
2019-05-20T10:49:27.062Z,19.80
2019-05-20T10:51:55.899Z,19.80
2019-05-20T10:54:25.522Z,19.60
2019-05-20T10:56:55.084Z,19.50
2019-05-20T10:59:23.955Z,19.50
2019-05-20T11:01:53.537Z,19.40
2019-05-20T11:04:22.360Z,19.60
2019-05-20T11:06:51.208Z,19.40
2019-05-20T11:09:20.049Z,19.50
2019-05-20T11:11:48.901Z,19.40
2019-05-20T11:14:17.747Z,19.60
2019-05-20T11:16:47.316Z,19.50
2019-05-20T11:19:16.152Z,19.40
2019-05-20T11:21:45.738Z,19.40
2019-05-20T11:24:14.578Z,19.30
2019-05-20T11:26:43.425Z,19.10
2019-05-20T11:29:12.337Z,19.00
2019-05-20T11:31:41.132Z,18.80
2019-05-20T11:34:09.963Z,18.60
2019-05-20T11:36:38.788Z,18.50
2019-05-20T11:39:07.629Z,18.50
2019-05-20T11:41:54.271Z,18.30
2019-05-20T11:44:06.294Z,18.10
2019-05-20T11:46:35.880Z,17.90
2019-05-20T11:49:05.473Z,17.80
2019-05-20T11:51:34.317Z,17.60
2019-05-20T11:54:03.150Z,17.40
2019-05-20T11:56:31.991Z,17.20
2019-05-20T11:59:00.832Z,17.10
2019-05-20T12:01:29.667Z,17.20
2019-05-20T12:03:58.523Z,17.20
2019-05-20T12:06:28.128Z,17.20
2019-05-20T12:08:57.718Z,17.30
2019-05-20T12:11:26.602Z,17.40
2019-05-20T12:13:55.385Z,17.40
2019-05-20T12:16:24.211Z,17.40
2019-05-20T12:18:53.790Z,17.30
2019-05-20T12:21:22.631Z,17.40
2019-05-20T12:23:51.482Z,17.30
2019-05-20T12:26:22.728Z,17.30
2019-05-20T12:28:49.910Z,17.20
2019-05-20T12:31:18.777Z,17.20
2019-05-20T12:33:48.382Z,17.20
2019-05-20T12:36:17.968Z,17.20
2019-05-20T12:38:46.825Z,17.20
2019-05-20T12:41:15.652Z,17.30
2019-05-20T12:43:45.242Z,17.20
2019-05-20T12:46:13.357Z,17.30
2019-05-20T12:48:42.195Z,17.40
2019-05-20T12:51:14.324Z,17.40
2019-05-20T12:53:39.892Z,17.40
2019-05-20T12:56:08.744Z,17.60
2019-05-20T12:58:37.729Z,17.70
2019-05-20T13:01:06.425Z,17.70
2019-05-20T13:03:35.247Z,17.70
2019-05-20T13:08:34.265Z,17.70
2019-05-20T13:11:03.130Z,17.70
2019-05-20T13:13:35.408Z,17.70
2019-05-20T13:16:04.174Z,17.50
2019-05-20T13:18:32.993Z,17.50
2019-05-20T13:21:02.184Z,17.40
2019-05-20T13:23:30.706Z,17.40
2019-05-20T13:25:59.542Z,17.30
2019-05-20T13:28:28.362Z,17.20
2019-05-20T13:30:57.944Z,17.30
2019-05-20T13:33:26.774Z,17.30
2019-05-20T13:35:55.627Z,17.40
2019-05-20T13:38:24.453Z,17.40
2019-05-20T13:40:53.347Z,17.40
2019-05-20T13:43:22.208Z,17.50
2019-05-20T13:45:51.808Z,17.40
2019-05-20T13:48:20.686Z,17.60
2019-05-20T13:50:49.494Z,17.70
2019-05-20T13:53:18.340Z,17.80
2019-05-20T13:55:47.173Z,17.80
2019-05-20T13:58:16.882Z,17.90
2019-05-20T14:00:45.599Z,18.00
2019-05-20T14:03:14.452Z,17.90
2019-05-20T14:08:12.802Z,18.10
2019-05-20T14:10:42.348Z,18.00
2019-05-20T14:13:11.922Z,18.00
2019-05-20T14:15:40.750Z,18.00
2019-05-20T14:18:09.588Z,18.00
2019-05-20T14:20:38.437Z,18.00
2019-05-20T14:23:07.298Z,18.00
2019-05-20T14:25:36.142Z,18.10
2019-05-20T14:28:04.984Z,18.00
2019-05-20T14:30:33.836Z,17.90
2019-05-20T14:33:02.783Z,17.90
2019-05-20T14:35:31.547Z,17.90
2019-05-20T14:38:00.387Z,18.00
2019-05-20T14:40:29.243Z,18.00
2019-05-20T14:42:58.180Z,18.00
2019-05-20T14:45:26.936Z,17.90
2019-05-20T14:47:55.768Z,17.90
2019-05-20T14:50:24.614Z,17.90
2019-05-20T14:52:54.200Z,17.90
2019-05-20T14:55:23.134Z,17.70
2019-05-20T14:57:53.718Z,17.80
2019-05-20T15:00:22.579Z,17.70
2019-05-20T15:02:51.413Z,17.70
2019-05-20T15:05:20.524Z,17.70
2019-05-20T15:07:49.144Z,17.60
2019-05-20T15:10:18.022Z,17.70
2019-05-20T15:12:46.804Z,17.60
2019-05-20T15:15:15.647Z,17.50
2019-05-20T15:17:44.506Z,17.50
2019-05-20T15:20:13.340Z,17.60
2019-05-20T15:22:42.912Z,17.60
2019-05-20T15:25:11.921Z,17.60
2019-05-20T15:27:40.770Z,17.50
2019-05-20T15:30:09.612Z,17.40
2019-05-20T15:32:39.180Z,17.30
2019-05-20T15:35:08.021Z,17.20
2019-05-20T15:37:36.890Z,17.00
2019-05-20T15:40:06.498Z,16.90
2019-05-20T15:42:35.373Z,16.90
2019-05-20T15:45:04.303Z,16.90
2019-05-20T15:47:33.782Z,16.80
2019-05-20T15:52:32.240Z,16.80
2019-05-20T15:55:01.840Z,16.80
2019-05-20T15:57:30.623Z,16.90
2019-05-20T15:59:59.457Z,16.90
2019-05-20T16:02:29.031Z,16.90
2019-05-20T16:04:57.929Z,16.90
2019-05-20T16:07:26.762Z,16.90
2019-05-20T16:09:56.348Z,16.90
2019-05-20T16:12:25.229Z,16.90
2019-05-20T16:15:42.110Z,16.80
2019-05-20T16:18:10.954Z,16.90
2019-05-20T16:20:39.865Z,16.90
2019-05-20T16:23:08.670Z,16.90
2019-05-20T16:25:37.498Z,16.90
2019-05-20T16:28:06.328Z,16.90
2019-05-20T16:30:35.888Z,16.80
2019-05-20T16:33:04.735Z,16.80
2019-05-20T16:35:33.570Z,16.70
2019-05-20T16:38:02.414Z,16.70
2019-05-20T16:40:31.246Z,16.70
2019-05-20T16:45:30.258Z,16.60
2019-05-20T16:47:59.143Z,16.60
2019-05-20T16:50:27.926Z,16.60
2019-05-20T16:52:56.772Z,16.70
2019-05-20T16:55:25.612Z,16.60
2019-05-20T16:57:54.439Z,16.60
2019-05-20T17:00:31.435Z,16.60
2019-05-20T17:02:52.122Z,16.60
2019-05-20T17:05:20.958Z,16.50
2019-05-20T17:07:49.776Z,16.50
2019-05-20T17:10:19.370Z,16.50
2019-05-20T17:12:48.237Z,16.50
2019-05-20T17:15:17.042Z,16.50
2019-05-20T17:17:45.861Z,16.50
2019-05-20T17:20:15.490Z,16.50
2019-05-20T17:22:44.292Z,16.50
2019-05-20T17:25:13.131Z,16.40
2019-05-20T17:27:42.730Z,16.40
2019-05-20T17:30:12.720Z,16.50
2019-05-20T17:32:41.552Z,16.50
2019-05-20T17:35:10.391Z,16.50
2019-05-20T17:37:39.259Z,16.50
2019-05-20T17:40:08.089Z,16.50
2019-05-20T17:42:36.918Z,16.50
2019-05-20T17:45:06.498Z,16.50
2019-05-20T17:47:35.335Z,16.50
2019-05-20T17:50:05.136Z,16.50
2019-05-20T17:52:33.965Z,16.40
2019-05-20T17:55:02.815Z,16.40
2019-05-20T17:57:31.669Z,16.50
2019-05-20T18:00:00.515Z,16.40
2019-05-20T18:02:29.344Z,16.40
2019-05-20T18:07:28.374Z,16.50
2019-05-20T18:09:57.960Z,16.50
2019-05-20T18:12:26.824Z,16.40
2019-05-20T18:14:55.721Z,16.40
2019-05-20T18:17:24.549Z,16.40
2019-05-20T18:19:54.124Z,16.40
2019-05-20T18:24:53.144Z,16.30
2019-05-20T18:27:21.970Z,16.30
2019-05-20T18:29:50.831Z,16.20
2019-05-20T18:32:19.660Z,16.20
2019-05-20T18:34:48.532Z,16.10
2019-05-20T18:37:18.109Z,16.10
2019-05-20T18:39:46.945Z,16.10
2019-05-20T18:42:15.878Z,16.10
2019-05-20T18:44:44.730Z,16.10
2019-05-20T18:47:13.562Z,16.10
2019-05-20T18:49:42.486Z,16.10
2019-05-20T18:52:11.335Z,16.00
2019-05-20T18:54:40.196Z,16.00
2019-05-20T18:57:08.999Z,16.10
2019-05-20T18:59:37.882Z,16.00
2019-05-20T19:02:06.718Z,16.00
2019-05-20T19:04:36.312Z,15.90
2019-05-20T19:07:05.919Z,15.90
2019-05-20T19:09:34.764Z,15.90
2019-05-20T19:12:03.611Z,15.90
2019-05-20T19:14:33.235Z,15.90
2019-05-20T19:17:02.811Z,15.90
2019-05-20T19:19:31.686Z,15.90
2019-05-20T19:22:00.486Z,15.90
2019-05-20T19:24:29.333Z,15.80
2019-05-20T19:26:58.180Z,15.80
2019-05-20T19:29:27.755Z,15.80
2019-05-20T19:32:01.995Z,15.80
2019-05-20T19:34:25.448Z,15.80
2019-05-20T19:36:54.308Z,15.80
2019-05-20T19:39:23.149Z,15.80
2019-05-20T19:41:52.736Z,15.80
2019-05-20T19:46:51.032Z,15.80
2019-05-20T19:49:19.872Z,15.80
2019-05-20T19:51:48.723Z,15.80
2019-05-20T19:54:18.366Z,15.80
2019-05-20T19:56:47.910Z,15.80
2019-05-20T19:59:16.744Z,15.80
2019-05-20T20:01:45.583Z,15.70
2019-05-20T20:04:14.428Z,15.60
2019-05-20T20:06:43.273Z,15.20
2019-05-20T20:09:12.383Z,15.00
2019-05-20T20:11:40.986Z,14.90
2019-05-20T20:14:09.841Z,14.80
2019-05-20T20:19:08.352Z,14.70
2019-05-20T20:21:36.951Z,14.70
2019-05-20T20:24:08.871Z,14.70
2019-05-20T20:26:34.672Z,14.70
2019-05-20T20:29:03.477Z,14.70
2019-05-20T20:31:32.315Z,14.70
2019-05-20T20:34:01.218Z,14.60
2019-05-20T20:36:30.037Z,14.70
2019-05-20T20:38:58.869Z,14.60
2019-05-20T20:41:27.731Z,14.60
2019-05-20T20:43:56.563Z,14.60
2019-05-20T20:46:25.415Z,14.60
2019-05-20T20:48:54.271Z,14.60
2019-05-20T20:51:23.118Z,14.50
2019-05-20T20:53:52.012Z,14.60
2019-05-20T20:56:25.083Z,14.60
2019-05-20T20:58:49.667Z,14.60
2019-05-20T21:01:19.273Z,14.50
2019-05-20T21:03:48.116Z,14.50
2019-05-20T21:06:17.001Z,14.40
2019-05-20T21:08:45.857Z,14.50
2019-05-20T21:11:15.435Z,14.40
2019-05-20T21:13:44.310Z,14.40
2019-05-20T21:16:13.146Z,14.40
2019-05-20T21:18:42.080Z,14.40
2019-05-20T21:21:10.922Z,14.50
2019-05-20T21:23:39.877Z,14.50
2019-05-20T21:26:08.597Z,14.50
2019-05-20T21:28:37.439Z,14.60
2019-05-20T21:31:06.487Z,14.60
2019-05-20T21:33:35.931Z,14.50
2019-05-20T21:36:04.760Z,14.50
2019-05-20T21:38:33.614Z,14.50
2019-05-20T21:41:02.466Z,14.50
2019-05-20T21:43:31.347Z,14.50
2019-05-20T21:46:00.935Z,14.50
2019-05-20T21:48:29.776Z,14.60
2019-05-20T21:50:58.615Z,14.60
2019-05-20T21:53:28.215Z,14.60
2019-05-20T21:55:57.821Z,14.50
2019-05-20T21:58:26.670Z,14.60
2019-05-20T22:00:55.513Z,14.60
2019-05-20T22:03:25.424Z,14.60
2019-05-20T22:05:54.014Z,14.60
2019-05-20T22:08:22.834Z,14.60
2019-05-20T22:10:51.709Z,14.50
2019-05-20T22:13:22.059Z,14.50
2019-05-20T22:15:51.330Z,14.50
2019-05-20T22:18:20.152Z,14.60
2019-05-20T22:20:49.012Z,14.60
2019-05-20T22:23:20.597Z,14.60
2019-05-20T22:25:49.416Z,14.60
2019-05-20T22:30:48.391Z,14.40
2019-05-20T22:33:41.628Z,14.50
2019-05-20T22:36:03.588Z,14.50
2019-05-20T22:38:32.432Z,14.50
2019-05-20T22:41:01.998Z,14.50
2019-05-20T22:43:30.819Z,14.50
2019-05-20T22:46:00.386Z,14.50
2019-05-20T22:48:29.200Z,14.50
2019-05-20T22:50:58.783Z,14.50
2019-05-20T22:53:27.613Z,14.50
2019-05-20T22:55:56.451Z,14.50
2019-05-20T22:58:25.278Z,14.40
2019-05-20T23:00:54.863Z,14.40
2019-05-20T23:03:23.687Z,14.40
2019-05-20T23:05:52.540Z,14.40
2019-05-20T23:08:21.371Z,14.50
2019-05-20T23:10:50.217Z,14.50
2019-05-20T23:13:19.050Z,14.50
2019-05-20T23:15:47.902Z,14.50
2019-05-20T23:18:16.755Z,14.50
2019-05-20T23:20:45.597Z,14.50
2019-05-20T23:23:14.427Z,14.60
2019-05-20T23:25:43.284Z,14.50
2019-05-20T23:28:12.865Z,14.50
2019-05-20T23:30:41.693Z,14.50
2019-05-20T23:33:10.549Z,14.50
2019-05-20T23:35:39.390Z,14.50
2019-05-20T23:38:08.229Z,14.50
2019-05-20T23:40:37.805Z,14.50
2019-05-20T23:43:06.633Z,14.50
2019-05-20T23:45:35.467Z,14.50
2019-05-20T23:48:04.292Z,14.50
2019-05-20T23:53:02.580Z,14.50
2019-05-20T23:55:31.447Z,14.60
2019-05-20T23:58:00.277Z,14.50
